sensor_id;sensor_type;location;lat;lon;timestamp;pressure;altitude;pressure_sealevel;temperature;humidity
21504;BME280;10913;51.992;9.228;2024-01-10T09:37:30;101810.81;;;8.57;46.87
21504;BME280;10913;51.992;9.228;2024-01-10T09:39:56;101803.81;;;8.94;46.94
21504;BME280;10913;51.992;9.228;2024-01-10T09:42:21;101814.34;;;9.30;45.82
21504;BME280;10913;51.992;9.228;2024-01-10T09:44:59;101813.44;;;9.29;44.84
21504;BME280;10913;51.992;9.228;2024-01-10T09:47:25;101802.94;;;9.31;44.46
21504;BME280;10913;51.992;9.228;2024-01-10T09:49:51;101805.97;;;9.10;44.22
21504;BME280;10913;51.992;9.228;2024-01-10T09:52:26;101796.44;;;8.81;44.69
21504;BME280;10913;51.992;9.228;2024-01-10T09:54:56;101801.28;;;8.62;45.21
21504;BME280;10913;51.992;9.228;2024-01-10T09:57:25;101800.31;;;8.59;45.28
21504;BME280;10913;51.992;9.228;2024-01-10T09:59:54;101798.25;;;8.47;45.50
21504;BME280;10913;51.992;9.228;2024-01-10T10:02:20;101800.19;;;8.23;45.13
21504;BME280;10913;51.992;9.228;2024-01-10T10:05:08;101802.03;;;7.94;45.29
21504;BME280;10913;51.992;9.228;2024-01-10T10:07:49;101791.94;;;7.78;45.92
21504;BME280;10913;51.992;9.228;2024-01-10T10:10:18;101790.78;;;7.68;46.28
21504;BME280;10913;51.992;9.228;2024-01-10T10:12:51;101789.59;;;7.57;46.08
21504;BME280;10913;51.992;9.228;2024-01-10T10:15:22;101781.50;;;7.51;46.47
21504;BME280;10913;51.992;9.228;2024-01-10T10:17:49;101786.63;;;7.46;46.62
21504;BME280;10913;51.992;9.228;2024-01-10T10:20:21;101780.00;;;7.31;46.75
21504;BME280;10913;51.992;9.228;2024-01-10T10:23:04;101769.94;;;7.16;46.64
21504;BME280;10913;51.992;9.228;2024-01-10T10:25:35;101769.53;;;7.04;47.39
21504;BME280;10913;51.992;9.228;2024-01-10T10:28:02;101765.16;;;7.04;47.50
21504;BME280;10913;51.992;9.228;2024-01-10T10:30:29;101768.16;;;6.61;47.70
21504;BME280;10913;51.992;9.228;2024-01-10T10:33:02;101768.09;;;6.58;48.26
21504;BME280;10913;51.992;9.228;2024-01-10T10:35:27;101775.38;;;6.41;48.62
21504;BME280;10913;51.992;9.228;2024-01-10T10:38:01;101769.31;;;6.69;49.25
21504;BME280;10913;51.992;9.228;2024-01-10T10:40:27;101771.41;;;6.79;48.73
21504;BME280;10913;51.992;9.228;2024-01-10T10:43:03;101766.31;;;6.85;48.65
21504;BME280;10913;51.992;9.228;2024-01-10T10:45:33;101776.72;;;7.09;48.93
21504;BME280;10913;51.992;9.228;2024-01-10T10:48:00;101769.03;;;7.15;48.74
21504;BME280;10913;51.992;9.228;2024-01-10T10:50:31;101769.00;;;7.14;48.05
21504;BME280;10913;51.992;9.228;2024-01-10T10:52:58;101773.22;;;6.82;47.53
21504;BME280;10913;51.992;9.228;2024-01-10T10:55:28;101765.47;;;6.60;48.24
21504;BME280;10913;51.992;9.228;2024-01-10T10:58:05;101763.63;;;6.55;48.79
21504;BME280;10913;51.992;9.228;2024-01-10T11:00:35;101772.22;;;6.51;48.26
21504;BME280;10913;51.992;9.228;2024-01-10T11:03:22;101769.59;;;6.26;48.88
21504;BME280;10913;51.992;9.228;2024-01-10T11:05:53;101768.00;;;6.06;49.18
21504;BME280;10913;51.992;9.228;2024-01-10T11:08:19;101771.13;;;5.72;48.76
21504;BME280;10913;51.992;9.228;2024-01-10T11:10:48;101768.22;;;5.64;49.26
21504;BME280;10913;51.992;9.228;2024-01-10T11:24:02;101772.53;;;5.40;50.21
21504;BME280;10913;51.992;9.228;2024-01-10T11:26:47;101774.06;;;5.33;50.38
21504;BME280;10913;51.992;9.228;2024-01-10T11:29:16;101764.81;;;5.20;50.25
21504;BME280;10913;51.992;9.228;2024-01-10T11:31:50;101763.22;;;5.02;50.69
21504;BME280;10913;51.992;9.228;2024-01-10T11:34:16;101767.03;;;4.88;50.72
21504;BME280;10913;51.992;9.228;2024-01-10T11:37:13;101753.69;;;4.59;51.40
21504;BME280;10913;51.992;9.228;2024-01-10T11:39:50;101759.91;;;4.42;52.08
21504;BME280;10913;51.992;9.228;2024-01-10T11:42:22;101756.47;;;4.43;51.96
21504;BME280;10913;51.992;9.228;2024-01-10T11:44:51;101754.13;;;4.28;51.80
21504;BME280;10913;51.992;9.228;2024-01-10T11:47:17;101751.38;;;4.25;52.45
21504;BME280;10913;51.992;9.228;2024-01-10T11:49:57;101753.91;;;4.24;52.44
21504;BME280;10913;51.992;9.228;2024-01-10T11:52:36;101750.59;;;4.28;52.63
21504;BME280;10913;51.992;9.228;2024-01-10T11:58:17;101757.94;;;4.15;53.21
21504;BME280;10913;51.992;9.228;2024-01-10T12:00:43;101753.41;;;4.11;52.78
21504;BME280;10913;51.992;9.228;2024-01-10T12:03:11;101761.31;;;4.13;53.63
21504;BME280;10913;51.992;9.228;2024-01-10T12:05:36;101758.66;;;3.92;53.48
21504;BME280;10913;51.992;9.228;2024-01-10T12:08:07;101759.72;;;3.76;53.61
21504;BME280;10913;51.992;9.228;2024-01-10T12:10:54;101750.94;;;3.74;53.76
21504;BME280;10913;51.992;9.228;2024-01-10T12:13:34;101744.31;;;3.63;54.20
21504;BME280;10913;51.992;9.228;2024-01-10T12:16:02;101742.13;;;3.53;54.42
21504;BME280;10913;51.992;9.228;2024-01-10T12:18:27;101738.84;;;3.38;55.00
21504;BME280;10913;51.992;9.228;2024-01-10T12:20:56;101739.31;;;3.49;55.52
21504;BME280;10913;51.992;9.228;2024-01-10T12:23:25;101741.53;;;3.59;55.91
21504;BME280;10913;51.992;9.228;2024-01-10T12:25:56;101741.97;;;3.69;55.37
21504;BME280;10913;51.992;9.228;2024-01-10T12:28:21;101747.34;;;3.72;55.41
21504;BME280;10913;51.992;9.228;2024-01-10T12:30:57;101738.25;;;3.64;54.82
21504;BME280;10913;51.992;9.228;2024-01-10T12:33:43;101738.41;;;3.48;54.82
21504;BME280;10913;51.992;9.228;2024-01-10T12:36:12;101742.66;;;3.27;55.00
21504;BME280;10913;51.992;9.228;2024-01-10T12:38:50;101737.69;;;3.14;55.84
21504;BME280;10913;51.992;9.228;2024-01-10T12:41:16;101739.53;;;2.97;56.15
21504;BME280;10913;51.992;9.228;2024-01-10T12:43:49;101732.97;;;2.87;56.18
21504;BME280;10913;51.992;9.228;2024-01-10T12:46:15;101726.22;;;2.73;56.02
21504;BME280;10913;51.992;9.228;2024-01-10T12:49:10;101729.28;;;2.47;55.93
21504;BME280;10913;51.992;9.228;2024-01-10T12:51:53;101730.91;;;2.45;56.23
21504;BME280;10913;51.992;9.228;2024-01-10T12:54:43;101731.81;;;2.45;55.77
21504;BME280;10913;51.992;9.228;2024-01-10T12:57:09;101727.72;;;2.32;56.12
21504;BME280;10913;51.992;9.228;2024-01-10T12:59:37;101728.66;;;2.17;56.98
21504;BME280;10913;51.992;9.228;2024-01-10T13:02:05;101735.50;;;2.15;56.83
21504;BME280;10913;51.992;9.228;2024-01-10T13:04:34;101736.91;;;2.08;56.23
21504;BME280;10913;51.992;9.228;2024-01-10T13:06:59;101733.69;;;1.96;56.30
21504;BME280;10913;51.992;9.228;2024-01-10T13:09:27;101735.34;;;1.78;56.61
21504;BME280;10913;51.992;9.228;2024-01-10T13:12:02;101741.22;;;1.73;57.64
21504;BME280;10913;51.992;9.228;2024-01-10T13:14:27;101743.19;;;1.78;58.10
21504;BME280;10913;51.992;9.228;2024-01-10T13:16:56;101741.06;;;1.70;58.55
21504;BME280;10913;51.992;9.228;2024-01-10T13:19:22;101743.25;;;1.63;57.92
21504;BME280;10913;51.992;9.228;2024-01-10T13:21:51;101750.84;;;1.58;58.62
21504;BME280;10913;51.992;9.228;2024-01-10T13:24:18;101747.09;;;1.53;59.16
21504;BME280;10913;51.992;9.228;2024-01-10T13:26:53;101752.69;;;1.45;60.40
21504;BME280;10913;51.992;9.228;2024-01-10T13:32:16;101742.28;;;1.12;59.72
21504;BME280;10913;51.992;9.228;2024-01-10T13:34:57;101747.78;;;1.02;61.43
21504;BME280;10913;51.992;9.228;2024-01-10T13:37:22;101745.88;;;0.83;62.04
21504;BME280;10913;51.992;9.228;2024-01-10T13:39:55;101746.00;;;0.70;61.93
21504;BME280;10913;51.992;9.228;2024-01-10T13:42:26;101744.03;;;0.66;62.62
21504;BME280;10913;51.992;9.228;2024-01-10T13:44:55;101750.53;;;0.58;62.72
21504;BME280;10913;51.992;9.228;2024-01-10T13:47:28;101745.69;;;0.49;63.39
21504;BME280;10913;51.992;9.228;2024-01-10T13:49:53;101749.81;;;0.46;62.85
21504;BME280;10913;51.992;9.228;2024-01-10T13:52:19;101750.00;;;0.34;62.13
21504;BME280;10913;51.992;9.228;2024-01-10T13:54:47;101754.84;;;0.28;61.99
21504;BME280;10913;51.992;9.228;2024-01-10T13:57:13;101752.97;;;0.25;62.37
21504;BME280;10913;51.992;9.228;2024-01-10T13:59:41;101745.16;;;0.25;62.65
21504;BME280;10913;51.992;9.228;2024-01-10T14:02:10;101747.59;;;0.22;62.86
21504;BME280;10913;51.992;9.228;2024-01-10T14:04:52;101755.84;;;0.15;62.40
21504;BME280;10913;51.992;9.228;2024-01-10T14:07:18;101754.31;;;0.04;62.99
21504;BME280;10913;51.992;9.228;2024-01-10T14:09:44;101759.50;;;-0.11;64.96
21504;BME280;10913;51.992;9.228;2024-01-10T14:12:18;101751.31;;;-0.31;65.47
21504;BME280;10913;51.992;9.228;2024-01-10T14:14:52;101758.28;;;-0.45;66.16
21504;BME280;10913;51.992;9.228;2024-01-10T14:17:20;101757.19;;;-0.49;66.17
21504;BME280;10913;51.992;9.228;2024-01-10T14:19:54;101759.22;;;-0.58;66.90
21504;BME280;10913;51.992;9.228;2024-01-10T14:22:20;101756.88;;;-0.68;67.35
21504;BME280;10913;51.992;9.228;2024-01-10T14:24:45;101748.09;;;-0.70;66.45
21504;BME280;10913;51.992;9.228;2024-01-10T14:27:13;101755.09;;;-0.69;65.72
21504;BME280;10913;51.992;9.228;2024-01-10T14:29:45;101758.69;;;-0.67;66.34
21504;BME280;10913;51.992;9.228;2024-01-10T14:32:11;101761.19;;;-0.68;67.35
21504;BME280;10913;51.992;9.228;2024-01-10T14:34:39;101759.88;;;-0.75;67.04
21504;BME280;10913;51.992;9.228;2024-01-10T14:37:15;101764.97;;;-0.77;66.76
21504;BME280;10913;51.992;9.228;2024-01-10T14:40:05;101771.69;;;-0.80;67.67
21504;BME280;10913;51.992;9.228;2024-01-10T14:42:32;101771.50;;;-0.83;68.15
21504;BME280;10913;51.992;9.228;2024-01-10T14:44:59;101778.28;;;-0.85;68.59
21504;BME280;10913;51.992;9.228;2024-01-10T14:47:28;101770.72;;;-0.95;69.03
21504;BME280;10913;51.992;9.228;2024-01-10T14:49:57;101774.66;;;-1.02;69.38
21504;BME280;10913;51.992;9.228;2024-01-10T14:52:23;101762.78;;;-1.12;69.71
21504;BME280;10913;51.992;9.228;2024-01-10T14:54:59;101770.94;;;-1.19;70.11
21504;BME280;10913;51.992;9.228;2024-01-10T14:57:25;101774.88;;;-1.25;70.25
21504;BME280;10913;51.992;9.228;2024-01-10T14:59:50;101767.38;;;-1.34;70.19
21504;BME280;10913;51.992;9.228;2024-01-10T15:02:16;101773.38;;;-1.35;70.40
21504;BME280;10913;51.992;9.228;2024-01-10T15:05:03;101778.88;;;-1.44;70.76
21504;BME280;10913;51.992;9.228;2024-01-10T15:07:31;101772.38;;;-1.50;70.90
21504;BME280;10913;51.992;9.228;2024-01-10T15:09:56;101782.53;;;-1.53;71.00
21504;BME280;10913;51.992;9.228;2024-01-10T15:12:24;101773.66;;;-1.57;71.46
21504;BME280;10913;51.992;9.228;2024-01-10T15:14:49;101776.66;;;-1.64;71.77
21504;BME280;10913;51.992;9.228;2024-01-10T15:17:29;101784.13;;;-1.68;71.60
21504;BME280;10913;51.992;9.228;2024-01-10T15:19:54;101782.34;;;-1.69;71.78
21504;BME280;10913;51.992;9.228;2024-01-10T15:22:23;101785.81;;;-1.69;72.44
21504;BME280;10913;51.992;9.228;2024-01-10T15:24:48;101784.03;;;-1.70;72.60
21504;BME280;10913;51.992;9.228;2024-01-10T15:27:20;101788.31;;;-1.70;72.74
21504;BME280;10913;51.992;9.228;2024-01-10T15:29:45;101784.13;;;-1.68;73.06
21504;BME280;10913;51.992;9.228;2024-01-10T15:32:11;101793.69;;;-1.67;73.09
21504;BME280;10913;51.992;9.228;2024-01-10T15:34:36;101797.09;;;-1.68;73.55
21504;BME280;10913;51.992;9.228;2024-01-10T15:37:03;101791.69;;;-1.71;73.91
21504;BME280;10913;51.992;9.228;2024-01-10T15:39:42;101791.59;;;-1.73;73.90
21504;BME280;10913;51.992;9.228;2024-01-10T15:42:08;101800.06;;;-1.76;73.96
21504;BME280;10913;51.992;9.228;2024-01-10T15:44:40;101798.88;;;-1.81;74.25
21504;BME280;10913;51.992;9.228;2024-01-10T15:47:11;101803.75;;;-1.85;74.77
21504;BME280;10913;51.992;9.228;2024-01-10T15:49:36;101795.66;;;-1.90;75.31
21504;BME280;10913;51.992;9.228;2024-01-10T15:52:01;101796.13;;;-1.95;75.89
21504;BME280;10913;51.992;9.228;2024-01-10T15:54:42;101794.22;;;-1.98;75.94
21504;BME280;10913;51.992;9.228;2024-01-10T15:57:08;101800.81;;;-2.03;76.15
21504;BME280;10913;51.992;9.228;2024-01-10T15:59:54;101798.00;;;-2.06;76.19
21504;BME280;10913;51.992;9.228;2024-01-10T16:02:28;101802.75;;;-2.12;76.18
21504;BME280;10913;51.992;9.228;2024-01-10T16:05:18;101807.50;;;-2.18;76.01
21504;BME280;10913;51.992;9.228;2024-01-10T16:07:56;101807.22;;;-2.23;76.47
21504;BME280;10913;51.992;9.228;2024-01-10T16:10:24;101798.03;;;-2.31;76.36
21504;BME280;10913;51.992;9.228;2024-01-10T16:12:52;101805.56;;;-2.34;76.47
21504;BME280;10913;51.992;9.228;2024-01-10T16:15:21;101806.03;;;-2.39;76.47
21504;BME280;10913;51.992;9.228;2024-01-10T16:17:46;101810.25;;;-2.41;76.78
21504;BME280;10913;51.992;9.228;2024-01-10T16:20:15;101804.72;;;-2.46;76.80
21504;BME280;10913;51.992;9.228;2024-01-10T16:22:40;101803.41;;;-2.53;77.05
21504;BME280;10913;51.992;9.228;2024-01-10T16:25:16;101808.25;;;-2.57;77.02
21504;BME280;10913;51.992;9.228;2024-01-10T16:27:47;101808.63;;;-2.64;77.21
21504;BME280;10913;51.992;9.228;2024-01-10T16:30:13;101809.19;;;-2.68;77.58
21504;BME280;10913;51.992;9.228;2024-01-10T16:32:38;101809.88;;;-2.71;77.61
21504;BME280;10913;51.992;9.228;2024-01-10T16:35:04;101812.25;;;-2.74;77.82
21504;BME280;10913;51.992;9.228;2024-01-10T16:37:30;101811.13;;;-2.78;78.03
21504;BME280;10913;51.992;9.228;2024-01-10T16:39:56;101816.00;;;-2.82;78.31
21504;BME280;10913;51.992;9.228;2024-01-10T16:42:21;101816.34;;;-2.89;78.24
21504;BME280;10913;51.992;9.228;2024-01-10T16:44:47;101812.63;;;-2.93;78.52
21504;BME280;10913;51.992;9.228;2024-01-10T16:47:15;101808.91;;;-2.96;78.59
21504;BME280;10913;51.992;9.228;2024-01-10T16:49:40;101808.63;;;-3.01;78.57
21504;BME280;10913;51.992;9.228;2024-01-10T16:52:14;101814.34;;;-3.05;78.85
21504;BME280;10913;51.992;9.228;2024-01-10T16:54:42;101808.72;;;-3.11;78.74
21504;BME280;10913;51.992;9.228;2024-01-10T16:57:08;101824.91;;;-3.14;78.77
21504;BME280;10913;51.992;9.228;2024-01-10T16:59:34;101821.09;;;-3.19;79.10
21504;BME280;10913;51.992;9.228;2024-01-10T17:02:01;101825.16;;;-3.22;79.14
21504;BME280;10913;51.992;9.228;2024-01-10T17:04:27;101825.84;;;-3.25;79.39
21504;BME280;10913;51.992;9.228;2024-01-10T17:06:52;101823.69;;;-3.30;79.43
21504;BME280;10913;51.992;9.228;2024-01-10T17:09:20;101828.50;;;-3.35;79.57
21504;BME280;10913;51.992;9.228;2024-01-10T17:11:49;101840.41;;;-3.37;79.89
21504;BME280;10913;51.992;9.228;2024-01-10T17:14:14;101830.56;;;-3.42;80.41
21504;BME280;10913;51.992;9.228;2024-01-10T17:16:41;101839.09;;;-3.43;80.44
21504;BME280;10913;51.992;9.228;2024-01-10T17:19:10;101824.03;;;-3.49;80.58
21504;BME280;10913;51.992;9.228;2024-01-10T17:21:39;101826.94;;;-3.56;80.82
21504;BME280;10913;51.992;9.228;2024-01-10T17:24:05;101827.59;;;-3.59;81.01
21504;BME280;10913;51.992;9.228;2024-01-10T17:26:31;101833.47;;;-3.61;80.90
21504;BME280;10913;51.992;9.228;2024-01-10T17:28:57;101841.63;;;-3.67;81.15
21504;BME280;10913;51.992;9.228;2024-01-10T17:31:29;101835.22;;;-3.72;81.21
21504;BME280;10913;51.992;9.228;2024-01-10T17:34:04;101841.72;;;-3.77;81.38
21504;BME280;10913;51.992;9.228;2024-01-10T17:36:34;101838.13;;;-3.79;81.28
21504;BME280;10913;51.992;9.228;2024-01-10T17:39:10;101843.75;;;-3.85;81.52
21504;BME280;10913;51.992;9.228;2024-01-10T17:41:35;101845.97;;;-3.89;81.60
21504;BME280;10913;51.992;9.228;2024-01-10T17:44:00;101847.53;;;-3.91;81.57
21504;BME280;10913;51.992;9.228;2024-01-10T17:46:29;101848.31;;;-3.92;81.59
21504;BME280;10913;51.992;9.228;2024-01-10T17:48:58;101852.47;;;-3.94;81.75
21504;BME280;10913;51.992;9.228;2024-01-10T17:51:24;101858.28;;;-3.97;81.87
21504;BME280;10913;51.992;9.228;2024-01-10T17:53:52;101855.50;;;-4.00;81.93
21504;BME280;10913;51.992;9.228;2024-01-10T17:56:18;101860.44;;;-4.03;82.25
21504;BME280;10913;51.992;9.228;2024-01-10T17:58:45;101859.41;;;-4.05;82.17
21504;BME280;10913;51.992;9.228;2024-01-10T18:01:11;101859.03;;;-4.09;82.30
21504;BME280;10913;51.992;9.228;2024-01-10T18:03:36;101853.53;;;-4.14;82.63
21504;BME280;10913;51.992;9.228;2024-01-10T18:06:01;101850.69;;;-4.17;82.47
21504;BME280;10913;51.992;9.228;2024-01-10T18:08:36;101856.31;;;-4.23;82.63
21504;BME280;10913;51.992;9.228;2024-01-10T18:11:01;101850.78;;;-4.27;82.81
21504;BME280;10913;51.992;9.228;2024-01-10T18:13:27;101858.41;;;-4.29;83.09
21504;BME280;10913;51.992;9.228;2024-01-10T18:15:52;101857.94;;;-4.35;83.02
21504;BME280;10913;51.992;9.228;2024-01-10T18:18:17;101850.84;;;-4.37;83.57
21504;BME280;10913;51.992;9.228;2024-01-10T18:20:52;101849.81;;;-4.39;83.49
21504;BME280;10913;51.992;9.228;2024-01-10T18:23:40;101847.94;;;-4.42;83.75
21504;BME280;10913;51.992;9.228;2024-01-10T18:26:05;101860.84;;;-4.42;83.95
21504;BME280;10913;51.992;9.228;2024-01-10T18:28:34;101859.03;;;-4.43;83.88
21504;BME280;10913;51.992;9.228;2024-01-10T18:31:01;101866.66;;;-4.44;84.11
21504;BME280;10913;51.992;9.228;2024-01-10T18:33:29;101856.97;;;-4.47;84.18
21504;BME280;10913;51.992;9.228;2024-01-10T18:35:54;101861.25;;;-4.47;84.35
21504;BME280;10913;51.992;9.228;2024-01-10T18:38:20;101847.97;;;-4.52;84.13
21504;BME280;10913;51.992;9.228;2024-01-10T18:40:45;101847.84;;;-4.54;84.24
21504;BME280;10913;51.992;9.228;2024-01-10T18:43:12;101841.44;;;-4.59;84.61
21504;BME280;10913;51.992;9.228;2024-01-10T18:45:48;101838.84;;;-4.59;84.42
21504;BME280;10913;51.992;9.228;2024-01-10T18:48:14;101842.13;;;-4.61;84.63
21504;BME280;10913;51.992;9.228;2024-01-10T18:50:39;101836.84;;;-4.63;84.86
21504;BME280;10913;51.992;9.228;2024-01-10T18:53:05;101839.97;;;-4.67;84.90
21504;BME280;10913;51.992;9.228;2024-01-10T18:55:31;101833.13;;;-4.66;84.82
21504;BME280;10913;51.992;9.228;2024-01-10T18:57:58;101838.03;;;-4.69;84.91
21504;BME280;10913;51.992;9.228;2024-01-10T19:00:29;101838.56;;;-4.73;84.83
21504;BME280;10913;51.992;9.228;2024-01-10T19:02:56;101833.53;;;-4.72;84.99
21504;BME280;10913;51.992;9.228;2024-01-10T19:05:23;101833.41;;;-4.73;85.13
21504;BME280;10913;51.992;9.228;2024-01-10T19:07:48;101841.00;;;-4.75;85.16
21504;BME280;10913;51.992;9.228;2024-01-10T19:10:14;101842.94;;;-4.72;85.39
21504;BME280;10913;51.992;9.228;2024-01-10T19:12:40;101847.19;;;-4.73;85.81
21504;BME280;10913;51.992;9.228;2024-01-10T19:15:06;101843.72;;;-4.73;85.82
21504;BME280;10913;51.992;9.228;2024-01-10T19:17:34;101834.97;;;-4.75;85.81
21504;BME280;10913;51.992;9.228;2024-01-10T19:20:00;101836.63;;;-4.76;85.75
21504;BME280;10913;51.992;9.228;2024-01-10T19:22:26;101834.84;;;-4.77;85.50
21504;BME280;10913;51.992;9.228;2024-01-10T19:24:59;101833.81;;;-4.79;85.69
21504;BME280;10913;51.992;9.228;2024-01-10T19:27:33;101835.28;;;-4.82;85.66
21504;BME280;10913;51.992;9.228;2024-01-10T19:30:03;101834.25;;;-4.84;85.85
21504;BME280;10913;51.992;9.228;2024-01-10T19:32:37;101832.97;;;-4.90;85.75
21504;BME280;10913;51.992;9.228;2024-01-10T19:35:03;101825.13;;;-4.91;86.24
21504;BME280;10913;51.992;9.228;2024-01-10T19:37:29;101828.22;;;-4.95;86.01
21504;BME280;10913;51.992;9.228;2024-01-10T19:39:57;101829.66;;;-4.99;86.34
21504;BME280;10913;51.992;9.228;2024-01-10T19:42:25;101841.44;;;-5.02;86.02
21504;BME280;10913;51.992;9.228;2024-01-10T19:44:51;101844.53;;;-5.06;86.32
21504;BME280;10913;51.992;9.228;2024-01-10T19:47:16;101848.53;;;-5.10;86.25
21504;BME280;10913;51.992;9.228;2024-01-10T19:49:51;101852.66;;;-5.12;86.29
21504;BME280;10913;51.992;9.228;2024-01-10T19:52:16;101853.31;;;-5.14;86.74
21504;BME280;10913;51.992;9.228;2024-01-10T19:54:45;101866.84;;;-5.17;86.90
21504;BME280;10913;51.992;9.228;2024-01-10T19:57:10;101867.50;;;-5.19;86.74
21504;BME280;10913;51.992;9.228;2024-01-10T19:59:36;101870.47;;;-5.25;87.00
21504;BME280;10913;51.992;9.228;2024-01-10T20:02:01;101877.31;;;-5.26;87.14
21504;BME280;10913;51.992;9.228;2024-01-10T20:04:40;101877.81;;;-5.30;87.15
21504;BME280;10913;51.992;9.228;2024-01-10T20:07:18;101875.13;;;-5.31;86.90
21504;BME280;10913;51.992;9.228;2024-01-10T20:09:44;101879.50;;;-5.30;86.76
21504;BME280;10913;51.992;9.228;2024-01-10T20:12:13;101887.09;;;-5.32;86.93
21504;BME280;10913;51.992;9.228;2024-01-10T20:14:40;101888.38;;;-5.37;86.65
21504;BME280;10913;51.992;9.228;2024-01-10T20:17:08;101889.72;;;-5.42;86.93
21504;BME280;10913;51.992;9.228;2024-01-10T20:19:33;101884.31;;;-5.45;86.85
21504;BME280;10913;51.992;9.228;2024-01-10T20:21:59;101884.81;;;-5.49;87.06
21504;BME280;10913;51.992;9.228;2024-01-10T20:24:27;101891.38;;;-5.52;87.13
21504;BME280;10913;51.992;9.228;2024-01-10T20:26:58;101885.06;;;-5.56;87.29
21504;BME280;10913;51.992;9.228;2024-01-10T20:29:24;101886.63;;;-5.58;87.28
21504;BME280;10913;51.992;9.228;2024-01-10T20:31:51;101885.72;;;-5.59;87.51
21504;BME280;10913;51.992;9.228;2024-01-10T20:34:23;101883.03;;;-5.60;87.55
21504;BME280;10913;51.992;9.228;2024-01-10T20:36:50;101896.44;;;-5.64;87.68
21504;BME280;10913;51.992;9.228;2024-01-10T20:39:16;101887.69;;;-5.66;87.71
21504;BME280;10913;51.992;9.228;2024-01-10T20:41:41;101891.66;;;-5.70;87.75
21504;BME280;10913;51.992;9.228;2024-01-10T20:44:07;101896.03;;;-5.69;87.76
21504;BME280;10913;51.992;9.228;2024-01-10T20:46:33;101894.22;;;-5.70;88.30
21504;BME280;10913;51.992;9.228;2024-01-10T20:48:58;101899.25;;;-5.71;88.19
21504;BME280;10913;51.992;9.228;2024-01-10T20:51:27;101900.03;;;-5.72;88.14
21504;BME280;10913;51.992;9.228;2024-01-10T20:53:53;101912.00;;;-5.73;88.01
21504;BME280;10913;51.992;9.228;2024-01-10T20:56:18;101914.56;;;-5.73;88.12
21504;BME280;10913;51.992;9.228;2024-01-10T20:58:50;101913.53;;;-5.75;88.22
21504;BME280;10913;51.992;9.228;2024-01-10T21:01:25;101909.78;;;-5.78;88.36
21504;BME280;10913;51.992;9.228;2024-01-10T21:03:56;101915.97;;;-5.76;88.57
21504;BME280;10913;51.992;9.228;2024-01-10T21:06:23;101930.50;;;-5.77;88.58
21504;BME280;10913;51.992;9.228;2024-01-10T21:08:52;101924.22;;;-5.80;88.58
21504;BME280;10913;51.992;9.228;2024-01-10T21:11:18;101915.47;;;-5.82;88.91
21504;BME280;10913;51.992;9.228;2024-01-10T21:13:46;101920.63;;;-5.82;88.87
21504;BME280;10913;51.992;9.228;2024-01-10T21:16:12;101917.56;;;-5.88;89.36
21504;BME280;10913;51.992;9.228;2024-01-10T21:18:37;101921.53;;;-5.92;89.76
21504;BME280;10913;51.992;9.228;2024-01-10T21:21:05;101928.22;;;-5.94;89.46
21504;BME280;10913;51.992;9.228;2024-01-10T21:23:30;101929.91;;;-5.95;89.49
21504;BME280;10913;51.992;9.228;2024-01-10T21:25:56;101927.19;;;-5.96;89.10
21504;BME280;10913;51.992;9.228;2024-01-10T21:28:21;101927.81;;;-5.99;88.89
21504;BME280;10913;51.992;9.228;2024-01-10T21:30:47;101931.84;;;-6.02;89.27
21504;BME280;10913;51.992;9.228;2024-01-10T21:33:13;101937.63;;;-6.05;89.41
21504;BME280;10913;51.992;9.228;2024-01-10T21:35:41;101939.16;;;-6.07;89.75
21504;BME280;10913;51.992;9.228;2024-01-10T21:38:06;101931.31;;;-6.08;89.62
21504;BME280;10913;51.992;9.228;2024-01-10T21:40:32;101933.25;;;-6.06;89.76
21504;BME280;10913;51.992;9.228;2024-01-10T21:43:05;101927.97;;;-6.07;89.89
21504;BME280;10913;51.992;9.228;2024-01-10T21:45:39;101932.19;;;-6.08;89.76
21504;BME280;10913;51.992;9.228;2024-01-10T21:48:04;101934.78;;;-6.08;89.80
21504;BME280;10913;51.992;9.228;2024-01-10T21:50:33;101944.28;;;-6.07;89.50
21504;BME280;10913;51.992;9.228;2024-01-10T21:53:09;101941.84;;;-6.05;89.86
21504;BME280;10913;51.992;9.228;2024-01-10T21:55:34;101940.97;;;-6.06;89.70
21504;BME280;10913;51.992;9.228;2024-01-10T21:57:59;101945.06;;;-6.08;89.95
21504;BME280;10913;51.992;9.228;2024-01-10T22:00:25;101943.25;;;-6.09;90.21
21504;BME280;10913;51.992;9.228;2024-01-10T22:02:50;101942.50;;;-6.08;90.29
21504;BME280;10913;51.992;9.228;2024-01-10T22:05:23;101947.91;;;-6.05;90.96
21504;BME280;10913;51.992;9.228;2024-01-10T22:07:57;101954.09;;;-6.03;90.94
21504;BME280;10913;51.992;9.228;2024-01-10T22:10:23;101946.38;;;-6.03;90.84
21504;BME280;10913;51.992;9.228;2024-01-10T22:12:48;101946.38;;;-6.03;91.27
21504;BME280;10913;51.992;9.228;2024-01-10T22:15:14;101948.81;;;-6.04;90.94
21504;BME280;10913;51.992;9.228;2024-01-10T22:17:39;101953.06;;;-6.05;90.97
21504;BME280;10913;51.992;9.228;2024-01-10T22:20:20;101950.72;;;-6.12;90.77
21504;BME280;10913;51.992;9.228;2024-01-10T22:22:45;101942.72;;;-6.15;90.57
21504;BME280;10913;51.992;9.228;2024-01-10T22:25:11;101941.47;;;-6.20;90.64
21504;BME280;10913;51.992;9.228;2024-01-10T22:27:45;101948.38;;;-6.19;90.70
21504;BME280;10913;51.992;9.228;2024-01-10T22:30:11;101944.53;;;-6.24;90.71
21504;BME280;10913;51.992;9.228;2024-01-10T22:32:36;101959.19;;;-6.23;90.75
21504;BME280;10913;51.992;9.228;2024-01-10T22:35:06;101965.09;;;-6.24;90.46
21504;BME280;10913;51.992;9.228;2024-01-10T22:37:33;101962.53;;;-6.24;90.43
21504;BME280;10913;51.992;9.228;2024-01-10T22:40:00;101962.25;;;-6.27;90.64
21504;BME280;10913;51.992;9.228;2024-01-10T22:42:25;101966.34;;;-6.29;90.53
21504;BME280;10913;51.992;9.228;2024-01-10T22:44:56;101967.63;;;-6.34;90.92
21504;BME280;10913;51.992;9.228;2024-01-10T22:47:41;101977.91;;;-6.34;91.32
21504;BME280;10913;51.992;9.228;2024-01-10T22:50:11;101961.81;;;-6.42;91.47
21504;BME280;10913;51.992;9.228;2024-01-10T22:52:36;101962.88;;;-6.40;91.25
21504;BME280;10913;51.992;9.228;2024-01-10T22:55:04;101968.63;;;-6.42;91.12
21504;BME280;10913;51.992;9.228;2024-01-10T22:57:33;101953.84;;;-6.45;90.76